Time;durP1;ratioP1;P1;durP2;ratioP2;P2;SDS_P1;SDS_P2;PMS_P1;PMS_P2;Temp;Humidity;BMP_temperature;BMP_pressure;BME280_temperature;BME280_humidity;BME280_pressure;Samples;Min_cycle;Max_cycle;Signal;HPM_P1;HPM_P2
2022/04/18 00:00:29;;;;;;;7.47;4.50;;;1.20;99.90;;;;;;4274855;27;20266;-67
2022/04/18 00:02:30;;;;;;;9.77;5.47;;;1.20;99.90;;;;;;4268563;27;20270;-61
2022/04/18 00:04:33;;;;;;;10.87;4.90;;;1.10;99.90;;;;;;4274474;27;20299;-68
2022/04/18 00:06:36;;;;;;;9.67;4.87;;;1.10;99.90;;;;;;4273822;27;20326;-58
2022/04/18 00:08:37;;;;;;;9.80;4.57;;;1.10;99.90;;;;;;4264496;27;20262;-66
2022/04/18 00:10:38;;;;;;;7.93;4.13;;;1.10;99.90;;;;;;4256888;27;20331;-63
2022/04/18 00:12:39;;;;;;;9.20;4.77;;;1.00;99.90;;;;;;4257279;27;20656;-57
2022/04/18 00:14:40;;;;;;;9.60;4.10;;;1.00;99.90;;;;;;4258006;27;20262;-70
2022/04/18 00:16:41;;;;;;;8.87;3.90;;;0.90;99.90;;;;;;4256050;27;20386;-63
2022/04/18 00:18:42;;;;;;;8.60;3.60;;;0.90;99.90;;;;;;4258719;27;20270;-65
2022/04/18 00:20:44;;;;;;;8.00;4.57;;;0.90;99.90;;;;;;4256733;27;20648;-62
2022/04/18 00:22:45;;;;;;;6.70;3.57;;;0.90;99.90;;;;;;4258200;27;20695;-55
2022/04/18 00:24:46;;;;;;;6.83;3.93;;;0.90;99.90;;;;;;4256723;27;20323;-64
2022/04/18 00:26:48;;;;;;;6.47;3.67;;;0.80;99.90;;;;;;4258637;27;20822;-53
2022/04/18 00:28:49;;;;;;;9.43;4.00;;;0.80;99.90;;;;;;4256886;27;20263;-64
2022/04/18 00:30:51;;;;;;;9.27;5.13;;;0.80;99.90;;;;;;4264880;27;20261;-55
2022/04/18 00:32:53;;;;;;;10.20;5.30;;;0.80;99.90;;;;;;4237073;27;20279;-60
2022/04/18 00:34:54;;;;;;;11.97;5.03;;;0.70;99.90;;;;;;4274860;27;20262;-58
2022/04/18 00:36:55;;;;;;;11.20;4.20;;;0.70;99.90;;;;;;4272248;27;20642;-61
2022/04/18 00:38:56;;;;;;;8.57;3.90;;;0.70;99.90;;;;;;4274102;27;20270;-56
2022/04/18 00:40:57;;;;;;;8.33;4.03;;;0.70;99.90;;;;;;4274620;27;20241;-58
2022/04/18 00:43:06;;;;;;;8.43;4.50;;;0.70;99.90;;;;;;4273267;27;20326;-55
2022/04/18 00:45:07;;;;;;;7.97;4.23;;;0.70;99.90;;;;;;4274576;27;20270;-59
2022/04/18 00:47:08;;;;;;;9.10;3.63;;;0.70;99.90;;;;;;4272694;27;20274;-55
2022/04/18 00:49:10;;;;;;;9.60;4.80;;;0.60;99.90;;;;;;4274823;27;20771;-62
2022/04/18 00:51:15;;;;;;;7.60;3.80;;;0.70;99.90;;;;;;4271013;27;20797;-65
2022/04/18 00:53:18;;;;;;;13.50;5.87;;;0.70;99.90;;;;;;4274758;27;21024;-54
2022/04/18 00:55:20;;;;;;;13.97;6.40;;;0.70;99.90;;;;;;4273404;27;20269;-57
2022/04/18 00:57:23;;;;;;;12.87;5.03;;;0.60;99.90;;;;;;4274592;27;20301;-52
2022/04/18 00:59:24;;;;;;;9.33;4.67;;;0.60;99.90;;;;;;4274100;27;20278;-57
2022/04/18 01:01:26;;;;;;;8.93;4.17;;;0.60;99.90;;;;;;4274332;27;20286;-55
2022/04/18 01:03:30;;;;;;;7.87;4.17;;;0.60;99.90;;;;;;4274017;27;20282;-67
2022/04/18 01:05:32;;;;;;;8.23;4.33;;;0.60;99.90;;;;;;4274276;27;20821;-54
2022/04/18 01:07:34;;;;;;;7.23;4.27;;;0.50;99.90;;;;;;4273160;27;20327;-52
2022/04/18 01:09:35;;;;;;;8.97;4.90;;;0.50;99.90;;;;;;4275042;27;20326;-56
2022/04/18 01:11:36;;;;;;;7.60;4.40;;;0.50;99.90;;;;;;4274898;27;20274;-53
2022/04/18 01:13:45;;;;;;;6.50;4.20;;;0.50;99.90;;;;;;4276932;27;20317;-57
2022/04/18 01:15:51;;;;;;;9.53;4.70;;;0.50;99.90;;;;;;4276922;27;20329;-53
2022/04/18 01:17:52;;;;;;;6.47;3.70;;;0.40;99.90;;;;;;4277368;27;20285;-53
2022/04/18 01:19:53;;;;;;;8.03;4.00;;;0.40;99.90;;;;;;4260876;27;20319;-54
2022/04/18 01:21:55;;;;;;;9.30;4.77;;;0.40;99.90;;;;;;4259504;27;20328;-55
2022/04/18 01:23:58;;;;;;;11.43;4.57;;;0.30;99.90;;;;;;4241895;27;20327;-62
2022/04/18 01:30:40;;;;;;;7.27;4.53;;;0.20;99.90;;;;;;4259909;27;20274;-49
2022/04/18 01:32:42;;;;;;;7.17;4.10;;;0.10;99.90;;;;;;4274028;27;20281;-69
2022/04/18 01:34:43;;;;;;;8.83;4.17;;;0.10;99.90;;;;;;4276647;27;20315;-51
2022/04/18 01:36:45;;;;;;;7.07;3.97;;;0.00;99.90;;;;;;4277630;27;20800;-54
2022/04/18 01:38:46;;;;;;;8.97;4.17;;;0.00;99.90;;;;;;4276033;27;20769;-59
2022/04/18 01:40:47;;;;;;;8.83;4.40;;;0.00;99.90;;;;;;4270336;27;20275;-62
2022/04/18 01:42:48;;;;;;;9.53;4.60;;;-0.10;99.90;;;;;;4258964;27;20258;-62
2022/04/18 01:44:49;;;;;;;7.97;4.47;;;-0.10;99.90;;;;;;4259822;27;20271;-55
2022/04/18 01:46:50;;;;;;;7.50;4.93;;;-0.10;99.90;;;;;;4271258;27;20326;-58
2022/04/18 01:48:52;;;;;;;8.73;5.00;;;-0.10;99.90;;;;;;4277138;27;20285;-57
2022/04/18 01:50:54;;;;;;;7.17;4.67;;;-0.20;99.90;;;;;;4275024;27;20277;-57
2022/04/18 01:52:55;;;;;;;9.67;5.03;;;-0.20;99.90;;;;;;4276848;27;20400;-52
2022/04/18 01:54:56;;;;;;;9.47;4.43;;;-0.30;99.90;;;;;;4276152;27;20257;-52
2022/04/18 01:56:57;;;;;;;11.73;5.20;;;-0.40;99.90;;;;;;4276911;27;20274;-60
2022/04/18 01:58:58;;;;;;;9.33;4.47;;;-0.40;99.90;;;;;;4276328;27;20270;-62
2022/04/18 02:00:59;;;;;;;11.03;5.00;;;-0.50;99.90;;;;;;4275805;27;20326;-59
2022/04/18 02:03:00;;;;;;;13.67;6.40;;;-0.50;99.90;;;;;;4276853;27;20302;-58
2022/04/18 02:05:02;;;;;;;10.67;4.73;;;-0.50;99.90;;;;;;4265511;27;20270;-61
2022/04/18 02:07:03;;;;;;;9.63;4.53;;;-0.60;99.90;;;;;;4259759;27;20275;-58
2022/04/18 02:09:04;;;;;;;8.93;4.53;;;-0.60;99.90;;;;;;4258264;27;20423;-56
2022/04/18 02:11:06;;;;;;;9.47;4.97;;;-0.60;99.90;;;;;;4259557;27;20809;-65
2022/04/18 02:13:08;;;;;;;10.90;5.37;;;-0.60;99.90;;;;;;4264539;27;21086;-57
2022/04/18 02:15:09;;;;;;;10.07;4.63;;;-0.60;99.90;;;;;;4276608;27;20293;-51
2022/04/18 02:17:10;;;;;;;8.90;4.53;;;-0.60;99.90;;;;;;4275754;27;20294;-53
2022/04/18 02:19:12;;;;;;;7.43;3.83;;;-0.60;99.90;;;;;;4277012;27;20314;-59
2022/04/18 02:21:13;;;;;;;9.43;4.40;;;-0.60;99.90;;;;;;4274762;27;20694;-56
2022/04/18 02:23:14;;;;;;;38.67;15.90;;;-0.60;99.90;;;;;;4276583;27;20274;-55
2022/04/18 02:25:16;;;;;;;96.37;38.70;;;-0.60;99.90;;;;;;4274225;27;20334;-55
2022/04/18 02:27:17;;;;;;;46.47;19.77;;;-0.60;99.90;;;;;;4275716;27;20318;-58
2022/04/18 02:29:18;;;;;;;27.57;14.30;;;-0.60;99.90;;;;;;4275632;27;20242;-60
2022/04/18 02:31:19;;;;;;;48.37;23.80;;;-0.60;99.90;;;;;;4274872;27;20270;-61
2022/04/18 02:33:20;;;;;;;44.90;20.70;;;-0.60;99.90;;;;;;4275881;27;20654;-58
2022/04/18 02:35:24;;;;;;;36.53;17.30;;;-0.60;99.90;;;;;;4275332;27;20337;-52
2022/04/18 02:37:25;;;;;;;43.13;19.10;;;-0.60;99.90;;;;;;4275083;27;20342;-59
2022/04/18 02:39:26;;;;;;;25.57;10.93;;;-0.60;99.90;;;;;;4274493;27;20322;-57
2022/04/18 02:41:28;;;;;;;20.17;9.83;;;-0.50;99.90;;;;;;4259198;27;20279;-61
2022/04/18 02:43:29;;;;;;;13.47;6.73;;;-0.50;99.90;;;;;;4258175;27;20770;-55
2022/04/18 02:45:31;;;;;;;13.47;6.20;;;-0.50;99.90;;;;;;4274588;27;20330;-54
2022/04/18 02:47:32;;;;;;;10.53;5.30;;;-0.50;99.90;;;;;;4274364;27;20322;-49
2022/04/18 02:49:33;;;;;;;12.47;6.03;;;-0.50;99.90;;;;;;4276279;27;20774;-55
2022/04/18 02:51:35;;;;;;;36.53;16.80;;;-0.60;99.90;;;;;;4274610;27;20274;-65
2022/04/18 02:53:37;;;;;;;78.03;32.67;;;-0.60;99.90;;;;;;4275173;27;20278;-55
2022/04/18 02:55:38;;;;;;;71.63;29.40;;;-0.70;99.90;;;;;;4274331;27;20270;-60
2022/04/18 02:57:40;;;;;;;37.37;15.47;;;-0.80;99.90;;;;;;4275529;27;20338;-60
2022/04/18 02:59:41;;;;;;;35.60;15.23;;;-0.80;99.90;;;;;;4266805;27;20734;-55
2022/04/18 03:01:44;;;;;;;29.63;13.00;;;-0.80;99.90;;;;;;4257849;27;20749;-62
2022/04/18 03:03:45;;;;;;;31.93;17.73;;;-0.90;99.90;;;;;;4257383;27;20315;-56
2022/04/18 03:05:46;;;;;;;31.80;17.07;;;-0.90;99.90;;;;;;4257077;27;20303;-53
2022/04/18 03:07:47;;;;;;;53.03;21.50;;;-1.00;99.90;;;;;;4269161;27;20282;-61
2022/04/18 03:09:48;;;;;;;72.80;26.97;;;-1.00;99.90;;;;;;4274297;27;20821;-64
2022/04/18 03:11:49;;;;;;;25.00;11.50;;;-1.00;99.90;;;;;;4274682;27;20278;-58
2022/04/18 03:13:50;;;;;;;33.30;14.13;;;-1.00;99.90;;;;;;4274121;27;20331;-58
2022/04/18 03:15:52;;;;;;;111.20;39.33;;;-1.00;99.90;;;;;;4276335;27;20384;-58
2022/04/18 03:17:53;;;;;;;146.70;51.27;;;-1.10;99.90;;;;;;4274246;27;20338;-66
2022/04/18 03:19:54;;;;;;;78.00;27.60;;;-1.10;99.90;;;;;;4275885;27;20298;-56
2022/04/18 03:21:55;;;;;;;29.60;11.90;;;-1.10;99.90;;;;;;4272966;27;20326;-63
2022/04/18 03:23:56;;;;;;;181.90;59.30;;;-1.10;99.90;;;;;;4275082;27;20801;-63
2022/04/18 03:25:58;;;;;;;201.53;69.00;;;-1.10;99.90;;;;;;4273874;27;20752;-60
2022/04/18 03:27:59;;;;;;;55.87;23.23;;;-1.10;99.90;;;;;;4274713;27;20262;-56
2022/04/18 03:30:00;;;;;;;25.20;9.67;;;-1.10;99.90;;;;;;4274028;27;20310;-63
2022/04/18 03:32:01;;;;;;;103.27;34.77;;;-1.10;99.90;;;;;;4274014;27;20326;-61
2022/04/18 03:34:03;;;;;;;179.97;60.23;;;-1.10;99.90;;;;;;4268186;27;20279;-60
2022/04/18 03:40:43;;;;;;;16.93;8.00;;;-1.20;99.90;;;;;;4264089;27;20314;-54
2022/04/18 03:42:44;;;;;;;22.03;8.50;;;-1.20;99.90;;;;;;4275379;27;20957;-58
2022/04/18 03:44:47;;;;;;;52.93;20.50;;;-1.20;99.90;;;;;;4272272;27;20334;-59
2022/04/18 03:46:48;;;;;;;29.50;12.93;;;-1.20;99.90;;;;;;4261101;27;20278;-65
2022/04/18 03:48:49;;;;;;;23.57;9.50;;;-1.20;99.90;;;;;;4256588;27;20604;-53
2022/04/18 03:50:50;;;;;;;14.43;7.60;;;-1.10;99.90;;;;;;4257786;27;20263;-55
2022/04/18 03:52:51;;;;;;;38.93;16.00;;;-0.80;99.90;;;;;;4256534;27;20270;-58
2022/04/18 03:54:52;;;;;;;37.53;15.17;;;-0.50;99.90;;;;;;4258359;27;20275;-58
2022/04/18 03:56:54;;;;;;;22.83;9.73;;;-0.10;99.90;;;;;;4257246;27;20320;-63
2022/04/18 03:58:55;;;;;;;10.50;5.53;;;0.20;99.90;;;;;;4257859;27;20853;-57
2022/04/18 04:00:56;;;;;;;10.93;5.87;;;0.60;99.90;;;;;;4263410;27;20269;-64
2022/04/18 04:02:57;;;;;;;13.47;5.93;;;0.90;99.90;;;;;;4255623;27;20267;-64
2022/04/18 04:04:58;;;;;;;13.23;6.33;;;1.30;99.90;;;;;;4274095;27;20258;-55
2022/04/18 04:06:59;;;;;;;12.97;5.80;;;1.70;99.90;;;;;;4274332;27;20334;-71
2022/04/18 04:09:00;;;;;;;12.87;5.90;;;2.10;99.90;;;;;;4274417;27;20258;-52
2022/04/18 04:11:02;;;;;;;11.77;5.73;;;2.40;99.90;;;;;;4262904;27;20676;-61
2022/04/18 04:13:03;;;;;;;10.27;5.23;;;2.80;99.90;;;;;;4256990;27;20307;-61
2022/04/18 04:15:05;;;;;;;9.77;4.67;;;3.20;99.90;;;;;;4256848;27;20278;-54
2022/04/18 04:17:06;;;;;;;8.00;4.70;;;3.70;99.90;;;;;;4256878;27;20825;-50
2022/04/18 04:19:07;;;;;;;8.77;4.30;;;4.10;99.90;;;;;;4271595;27;20413;-53
2022/04/18 04:21:08;;;;;;;9.90;5.13;;;4.50;99.90;;;;;;4273901;27;20322;-54
2022/04/18 04:23:09;;;;;;;8.10;4.90;;;4.90;99.90;;;;;;4272825;27;20571;-58
2022/04/18 04:25:11;;;;;;;10.47;4.83;;;5.30;99.90;;;;;;4274251;27;20270;-56
2022/04/18 04:27:12;;;;;;;13.30;5.97;;;5.60;99.90;;;;;;4273067;27;20261;-56
2022/04/18 04:29:13;;;;;;;10.67;4.53;;;5.80;99.90;;;;;;4274387;27;20318;-57
2022/04/18 04:31:14;;;;;;;9.70;4.43;;;6.00;99.90;;;;;;4273306;27;20710;-62
2022/04/18 04:33:15;;;;;;;10.97;4.77;;;6.30;99.90;;;;;;4274778;27;20269;-53
2022/04/18 04:35:17;;;;;;;8.53;4.33;;;6.50;99.90;;;;;;4273279;27;20262;-59
2022/04/18 04:37:20;;;;;;;9.27;4.97;;;6.90;99.20;;;;;;4249937;27;20393;-65
2022/04/18 04:39:21;;;;;;;6.63;3.73;;;7.40;99.00;;;;;;4251253;27;20713;-59
2022/04/18 04:41:22;;;;;;;11.70;5.23;;;7.80;98.10;;;;;;4254951;27;20274;-57
2022/04/18 04:43:28;;;;;;;8.13;4.13;;;8.30;97.20;;;;;;4256750;27;20831;-55
2022/04/18 04:45:32;;;;;;;9.37;3.93;;;8.30;94.90;;;;;;4266043;27;20376;-60
2022/04/18 04:47:33;;;;;;;5.50;2.93;;;8.50;94.80;;;;;;4261123;27;20554;-59
2022/04/18 04:49:34;;;;;;;6.87;3.93;;;9.00;94.30;;;;;;4250614;27;20095;-58
2022/04/18 04:51:35;;;;;;;9.73;4.03;;;9.50;93.10;;;;;;4252831;27;20051;-56
2022/04/18 04:53:36;;;;;;;10.13;4.23;;;9.50;91.90;;;;;;4264861;27;20034;-55
2022/04/18 04:55:37;;;;;;;8.07;3.43;;;9.80;91.90;;;;;;4263879;27;20030;-59
2022/04/18 04:57:39;;;;;;;6.90;3.83;;;10.30;91.10;;;;;;4251308;27;20879;-56
2022/04/18 04:59:40;;;;;;;7.97;5.13;;;10.50;90.20;;;;;;4271925;27;20107;-59
2022/04/18 05:01:41;;;;;;;13.67;5.60;;;10.60;88.30;;;;;;4257303;27;20091;-55
2022/04/18 05:03:42;;;;;;;7.77;5.27;;;10.70;88.10;;;;;;4260144;27;20030;-65
2022/04/18 05:05:43;;;;;;;6.77;4.30;;;10.70;86.40;;;;;;4259090;27;20435;-59
2022/04/18 05:07:44;;;;;;;9.83;3.40;;;11.10;85.40;;;;;;4260713;27;20415;-54
2022/04/18 05:09:45;;;;;;;4.07;3.03;;;11.50;84.20;;;;;;4260036;27;20091;-54
2022/04/18 05:11:46;;;;;;;8.60;4.30;;;11.50;82.70;;;;;;4259985;27;20043;-62
2022/04/18 05:13:48;;;;;;;12.17;4.80;;;11.80;82.60;;;;;;4259631;27;20087;-59
2022/04/18 05:15:49;;;;;;;10.23;5.57;;;12.10;81.40;;;;;;4259772;27;20038;-63
2022/04/18 05:17:50;;;;;;;8.20;5.00;;;12.30;79.50;;;;;;4260009;27;20031;-55
2022/04/18 05:19:51;;;;;;;7.83;3.97;;;12.50;78.80;;;;;;4258576;27;20095;-58
2022/04/18 05:21:52;;;;;;;7.33;3.57;;;12.40;76.80;;;;;;4259687;27;20031;-57
2022/04/18 05:23:53;;;;;;;8.27;4.80;;;12.20;77.00;;;;;;4258608;27;20042;-58
2022/04/18 05:25:55;;;;;;;6.30;3.77;;;12.40;76.60;;;;;;4260567;27;20027;-57
2022/04/18 05:27:56;;;;;;;4.63;2.87;;;12.50;76.30;;;;;;4258386;27;20039;-65
2022/04/18 05:29:57;;;;;;;4.67;2.90;;;12.70;75.10;;;;;;4259991;27;20031;-63
2022/04/18 05:31:58;;;;;;;3.50;2.30;;;13.00;74.40;;;;;;4258812;27;20027;-56
2022/04/18 05:33:59;;;;;;;5.10;2.33;;;13.50;73.60;;;;;;4267000;27;20495;-57
2022/04/18 05:36:00;;;;;;;5.67;2.43;;;13.70;72.60;;;;;;4263469;27;20042;-57
2022/04/18 05:38:02;;;;;;;7.33;2.50;;;13.60;70.70;;;;;;4258193;27;20543;-57
2022/04/18 05:40:03;;;;;;;7.03;2.73;;;13.40;70.30;;;;;;4258356;27;20131;-51
2022/04/18 05:42:06;;;;;;;6.43;3.00;;;12.70;70.40;;;;;;4262553;27;20355;-58
2022/04/18 05:44:07;;;;;;;6.77;2.30;;;12.60;70.40;;;;;;4242245;27;20027;-56
2022/04/18 05:46:08;;;;;;;4.67;2.13;;;12.40;70.40;;;;;;4244859;27;20435;-62
2022/04/18 05:48:09;;;;;;;4.57;2.60;;;12.70;69.90;;;;;;4245761;27;20019;-62
2022/04/18 05:50:10;;;;;;;5.17;2.63;;;13.10;69.20;;;;;;4261504;27;20034;-57
2022/04/18 05:52:14;;;;;;;5.13;3.00;;;13.60;68.60;;;;;;4258459;27;20034;-55
2022/04/18 05:54:16;;;;;;;4.10;2.13;;;14.10;67.40;;;;;;4260231;27;20083;-59
2022/04/18 05:56:17;;;;;;;7.10;2.20;;;14.20;66.40;;;;;;4258796;27;20046;-62
2022/04/18 05:58:18;;;;;;;2.53;2.00;;;13.90;66.20;;;;;;4260514;27;20671;-57
2022/04/18 06:00:20;;;;;;;4.40;2.80;;;13.80;66.10;;;;;;4263777;27;20038;-52
2022/04/18 06:02:21;;;;;;;3.57;1.60;;;14.00;65.70;;;;;;4262662;27;20118;-59
2022/04/18 06:04:22;;;;;;;6.33;2.17;;;14.30;65.20;;;;;;4267146;27;20107;-58
2022/04/18 06:06:23;;;;;;;3.33;1.63;;;14.50;64.60;;;;;;4263460;27;20102;-57
2022/04/18 06:08:25;;;;;;;3.10;2.23;;;14.80;63.80;;;;;;4263311;27;20065;-59
2022/04/18 06:10:26;;;;;;;3.27;1.90;;;14.60;63.10;;;;;;4262167;27;20494;-59
2022/04/18 06:12:27;;;;;;;7.67;2.77;;;14.50;63.30;;;;;;4264592;27;20444;-60
2022/04/18 06:14:29;;;;;;;4.77;2.30;;;14.70;63.30;;;;;;4260972;27;20043;-59
2022/04/18 06:16:30;;;;;;;6.90;3.10;;;14.70;62.10;;;;;;4243195;27;20092;-58
2022/04/18 06:18:31;;;;;;;5.53;2.17;;;14.80;62.40;;;;;;4258625;27;20460;-59
2022/04/18 06:20:32;;;;;;;2.30;1.53;;;14.50;61.60;;;;;;4258839;27;20158;-57
2022/04/18 06:22:33;;;;;;;1.10;1.00;;;14.30;61.30;;;;;;4262777;27;20038;-52
2022/04/18 06:24:35;;;;;;;2.57;1.67;;;14.40;60.60;;;;;;4262953;27;20084;-60
2022/04/18 06:26:36;;;;;;;1.90;1.60;;;14.20;60.50;;;;;;4262202;27;20043;-62
2022/04/18 06:28:37;;;;;;;1.80;1.43;;;14.00;60.70;;;;;;4260708;27;20099;-60
2022/04/18 06:30:39;;;;;;;2.20;1.20;;;13.90;60.90;;;;;;4264276;27;20111;-59
2022/04/18 06:32:40;;;;;;;6.20;1.90;;;13.10;60.00;;;;;;4265001;27;20030;-59
2022/04/18 06:34:41;;;;;;;3.60;1.90;;;12.00;61.40;;;;;;4261755;27;20046;-63
2022/04/18 06:36:42;;;;;;;4.83;1.93;;;12.20;62.50;;;;;;4264251;27;20545;-58
2022/04/18 06:38:43;;;;;;;2.50;1.80;;;12.10;62.60;;;;;;4260759;27;20027;-56
2022/04/18 06:40:44;;;;;;;2.73;1.20;;;12.70;62.60;;;;;;4259943;27;20704;-56
2022/04/18 06:42:46;;;;;;;2.90;1.70;;;13.70;61.20;;;;;;4261162;27;20035;-51
2022/04/18 06:44:47;;;;;;;4.20;1.43;;;13.10;60.50;;;;;;4263193;27;20027;-61
2022/04/18 06:46:48;;;;;;;1.90;1.10;;;11.90;60.00;;;;;;4261084;27;20094;-58
2022/04/18 06:48:49;;;;;;;1.80;1.20;;;10.70;61.70;;;;;;4260128;27;20047;-57
2022/04/18 06:50:50;;;;;;;2.63;1.27;;;10.70;63.40;;;;;;4261317;27;20443;-58
2022/04/18 06:52:51;;;;;;;3.07;1.30;;;10.70;63.40;;;;;;4261669;27;20023;-55
2022/04/18 06:54:53;;;;;;;4.93;1.20;;;10.90;63.00;;;;;;4261094;27;20450;-58
2022/04/18 06:57:00;;;;;;;1.87;1.40;;;10.80;63.50;;;;;;4260657;27;20074;-68
2022/04/18 06:59:01;;;;;;;0.80;0.80;;;11.30;63.00;;;;;;4242486;27;20134;-58
2022/04/18 07:01:03;;;;;;;1.83;1.33;;;10.90;62.00;;;;;;4241388;27;20059;-56
2022/04/18 07:03:04;;;;;;;1.90;1.20;;;10.50;62.50;;;;;;4231052;27;20034;-57
2022/04/18 07:05:05;;;;;;;3.57;1.77;;;10.70;63.20;;;;;;4262462;27;20046;-63
2022/04/18 07:07:08;;;;;;;1.77;1.13;;;10.60;63.10;;;;;;4259053;27;20042;-60
2022/04/18 07:09:09;;;;;;;5.03;1.23;;;11.10;63.40;;;;;;4260429;27;20019;-58
2022/04/18 07:11:10;;;;;;;4.77;1.47;;;11.40;62.20;;;;;;4264733;27;20063;-56
2022/04/18 07:13:11;;;;;;;0.80;0.63;;;10.80;62.30;;;;;;4261130;27;20030;-54
2022/04/18 07:15:12;;;;;;;1.23;0.80;;;9.60;61.60;;;;;;4257049;27;20131;-59
2022/04/18 07:17:13;;;;;;;2.03;0.87;;;8.90;63.50;;;;;;4259730;27;20088;-62
2022/04/18 07:19:15;;;;;;;1.50;0.77;;;8.40;63.90;;;;;;4274102;27;20058;-55
2022/04/18 07:21:16;;;;;;;0.60;0.50;;;8.40;64.50;;;;;;4262561;27;20103;-57
2022/04/18 07:23:17;;;;;;;0.70;0.60;;;8.40;64.10;;;;;;4257746;27;20036;-57
2022/04/18 07:25:18;;;;;;;2.73;0.90;;;8.20;64.30;;;;;;4238647;27;20759;-56
2022/04/18 07:27:19;;;;;;;2.03;0.80;;;8.00;65.20;;;;;;4257824;27;20175;-58
2022/04/18 07:29:21;;;;;;;0.97;0.70;;;7.90;65.40;;;;;;4256660;27;20721;-56
2022/04/18 07:31:22;;;;;;;4.70;1.00;;;8.20;65.60;;;;;;4250196;27;20034;-57
2022/04/18 07:33:23;;;;;;;8.23;2.50;;;8.30;64.70;;;;;;4253152;27;20092;-55
2022/04/18 07:35:24;;;;;;;2.10;0.80;;;8.20;64.10;;;;;;4258567;27;20027;-57
2022/04/18 07:37:25;;;;;;;2.60;1.53;;;8.30;64.20;;;;;;4237710;27;20444;-55
2022/04/18 07:39:26;;;;;;;2.20;0.70;;;8.20;64.70;;;;;;4258702;27;20452;-59
2022/04/18 07:41:29;;;;;;;2.37;0.90;;;8.60;64.50;;;;;;4256056;27;20088;-56
2022/04/18 07:43:34;;;;;;;1.33;0.70;;;8.60;64.00;;;;;;4238894;27;20100;-57
2022/04/18 07:45:37;;;;;;;4.67;1.20;;;8.40;64.20;;;;;;4239127;27;20103;-56
2022/04/18 07:47:38;;;;;;;2.07;1.00;;;8.40;64.80;;;;;;4256278;27;20026;-55
2022/04/18 07:49:39;;;;;;;1.90;1.30;;;8.40;64.80;;;;;;4274268;27;20085;-57
2022/04/18 07:51:42;;;;;;;3.57;0.87;;;8.30;64.40;;;;;;4274292;27;20083;-60
2022/04/18 07:53:44;;;;;;;1.90;0.90;;;8.30;64.40;;;;;;4252373;27;20023;-56
2022/04/18 07:55:45;;;;;;;2.10;1.27;;;8.30;64.90;;;;;;4248888;27;20537;-56
2022/04/18 07:57:46;;;;;;;1.90;1.30;;;8.30;64.60;;;;;;4257522;27;20030;-57
2022/04/18 07:59:47;;;;;;;1.00;0.87;;;8.10;64.60;;;;;;4256666;27;20034;-54
2022/04/18 08:01:48;;;;;;;2.17;0.90;;;8.00;65.30;;;;;;4257087;27;20039;-52
2022/04/18 08:03:50;;;;;;;1.93;1.10;;;8.00;65.70;;;;;;4238037;27;20047;-59
2022/04/18 08:05:51;;;;;;;1.27;0.87;;;8.00;65.50;;;;;;4257103;27;20470;-54
2022/04/18 08:07:52;;;;;;;1.03;0.90;;;8.10;65.60;;;;;;4256077;27;20042;-58
2022/04/18 08:09:53;;;;;;;1.43;0.80;;;8.40;65.90;;;;;;4257431;27;20038;-57
2022/04/18 08:11:54;;;;;;;1.60;0.70;;;8.70;64.70;;;;;;4260447;27;20554;-55
2022/04/18 08:13:55;;;;;;;6.20;1.50;;;8.70;64.30;;;;;;4273216;27;20042;-55
2022/04/18 08:15:57;;;;;;;1.30;1.10;;;8.60;64.40;;;;;;4272940;27;20055;-54
2022/04/18 08:17:58;;;;;;;1.47;1.03;;;8.70;64.70;;;;;;4254388;27;20047;-58
2022/04/18 08:20:00;;;;;;;2.80;1.00;;;9.00;64.40;;;;;;4273515;27;20477;-58
2022/04/18 08:22:02;;;;;;;2.63;1.20;;;8.80;63.80;;;;;;4270375;27;20038;-68
2022/04/18 08:24:03;;;;;;;1.73;0.97;;;8.60;64.40;;;;;;4260106;27;20099;-60
2022/04/18 08:26:04;;;;;;;1.40;0.77;;;8.70;64.50;;;;;;4260045;27;20035;-55
2022/04/18 08:28:06;;;;;;;2.37;1.10;;;8.70;64.20;;;;;;4260716;27;20023;-57
2022/04/18 08:30:08;;;;;;;1.50;1.00;;;8.60;63.70;;;;;;4276395;27;20561;-57
2022/04/18 08:32:09;;;;;;;1.30;0.70;;;8.60;64.30;;;;;;4277590;27;20030;-59
2022/04/18 08:34:10;;;;;;;1.43;1.00;;;8.80;64.00;;;;;;4276394;27;20455;-54
2022/04/18 08:36:12;;;;;;;1.07;0.90;;;8.80;63.50;;;;;;4278480;27;20075;-60
2022/04/18 08:38:13;;;;;;;1.53;1.13;;;8.60;63.90;;;;;;4276747;27;20038;-58
2022/04/18 08:40:14;;;;;;;0.97;0.70;;;8.60;63.90;;;;;;4276572;27;20038;-52
2022/04/18 08:42:16;;;;;;;1.03;0.80;;;8.60;64.10;;;;;;4277015;27;20022;-60
2022/04/18 08:44:19;;;;;;;2.83;0.80;;;8.70;63.90;;;;;;4278053;27;20415;-60
2022/04/18 08:46:21;;;;;;;3.77;1.13;;;8.90;64.10;;;;;;4257729;27;20083;-59
2022/04/18 08:53:03;;;;;;;4.18;1.42;;;8.50;63.90;;;;;;4278114;27;20316;-55
2022/04/18 08:55:04;;;;;;;3.53;0.90;;;8.50;64.10;;;;;;4275597;27;20106;-55
2022/04/18 08:57:05;;;;;;;1.47;0.87;;;8.60;64.00;;;;;;4261794;27;20449;-56
2022/04/18 08:59:06;;;;;;;1.00;0.80;;;9.10;64.30;;;;;;4253620;27;20047;-57
2022/04/18 09:01:08;;;;;;;1.90;1.03;;;9.50;64.30;;;;;;4259588;27;20097;-62
2022/04/18 09:03:09;;;;;;;2.43;1.10;;;9.90;64.30;;;;;;4262774;27;20023;-56
2022/04/18 09:05:12;;;;;;;1.93;1.33;;;10.40;63.80;;;;;;4259359;27;20072;-59
2022/04/18 09:07:14;;;;;;;2.10;0.83;;;10.80;62.90;;;;;;4258996;27;20440;-53
2022/04/18 09:09:15;;;;;;;1.30;1.00;;;11.00;62.30;;;;;;4258190;27;20034;-53
2022/04/18 09:11:27;;;;;;;2.60;0.93;;;10.80;60.60;;;;;;4259100;27;20038;-57
2022/04/18 09:13:29;;;;;;;1.57;1.13;;;10.30;60.90;;;;;;4258786;27;20145;-56
2022/04/18 09:15:34;;;;;;;2.90;1.37;;;10.10;61.80;;;;;;4258670;27;20063;-55
2022/04/18 09:17:36;;;;;;;1.57;0.60;;;10.00;61.00;;;;;;4256162;27;20034;-57
2022/04/18 09:19:38;;;;;;;1.40;0.77;;;9.90;61.60;;;;;;4260074;27;20080;-56
2022/04/18 09:21:54;;;;;;;1.40;1.10;;;9.50;60.10;;;;;;4259057;27;20087;-54
2022/04/18 09:23:56;;;;;;;3.97;1.00;;;9.30;61.00;;;;;;4260381;27;20083;-59
2022/04/18 09:26:09;;;;;;;1.83;0.90;;;9.20;61.30;;;;;;4257492;27;20905;-58
2022/04/18 09:28:11;;;;;;;2.13;0.90;;;9.20;61.40;;;;;;4242955;27;20039;-55
2022/04/18 09:30:15;;;;;;;0.80;0.63;;;9.00;61.40;;;;;;4256998;27;20059;-56
2022/04/18 09:32:22;;;;;;;1.80;1.27;;;8.90;61.50;;;;;;4275958;27;20050;-58
2022/04/18 09:34:24;;;;;;;1.37;0.97;;;8.70;61.40;;;;;;4275940;27;20423;-58
2022/04/18 09:36:26;;;;;;;3.27;1.00;;;8.80;61.90;;;;;;4258325;27;20062;-54
2022/04/18 09:38:28;;;;;;;2.93;0.93;;;9.00;62.90;;;;;;4266694;27;20087;-59
2022/04/18 09:40:32;;;;;;;1.10;1.00;;;9.40;62.10;;;;;;4269863;27;20041;-61
2022/04/18 09:42:33;;;;;;;2.00;1.00;;;9.50;60.40;;;;;;4277668;27;20046;-74
2022/04/18 09:44:34;;;;;;;2.27;0.83;;;9.40;60.70;;;;;;4269234;27;20046;-69
2022/04/18 09:46:35;;;;;;;1.43;0.70;;;9.20;60.60;;;;;;4260822;27;20080;-68
2022/04/18 09:48:37;;;;;;;1.13;0.77;;;9.00;60.50;;;;;;4260388;27;20043;-58
2022/04/18 09:52:59;;;;;;;0.85;0.52;;;8.60;59.80;;;;;;4249274;27;20369;-57
2022/04/18 09:55:01;;;;;;;1.40;0.60;;;8.30;59.70;;;;;;4241828;27;20475;-64
2022/04/18 09:57:06;;;;;;;0.83;0.73;;;8.20;60.50;;;;;;4264983;27;20038;-62
2022/04/18 09:59:14;;;;;;;2.57;1.37;;;8.00;60.20;;;;;;4253950;27;20555;-65
2022/04/18 10:01:19;;;;;;;1.80;0.67;;;8.00;61.10;;;;;;4239886;27;20031;-72
2022/04/18 10:03:20;;;;;;;2.17;0.90;;;8.20;61.10;;;;;;4242308;27;20099;-62
2022/04/18 10:05:22;;;;;;;2.37;1.73;;;8.40;60.80;;;;;;4239162;27;20821;-59
2022/04/18 10:07:23;;;;;;;1.03;0.67;;;8.50;61.00;;;;;;4238381;27;20412;-60
2022/04/18 10:09:24;;;;;;;3.57;0.87;;;8.70;60.20;;;;;;4239510;27;20035;-59
2022/04/18 10:11:26;;;;;;;1.00;0.70;;;8.70;59.80;;;;;;4244172;27;20158;-58
2022/04/18 10:13:29;;;;;;;9.67;6.73;;;8.80;60.00;;;;;;4248745;27;20042;-59
2022/04/18 10:15:30;;;;;;;6.63;4.73;;;9.00;59.70;;;;;;4276694;27;20045;-61
2022/04/18 10:17:36;;;;;;;2.03;1.60;;;9.30;60.00;;;;;;4273719;27;20149;-60
2022/04/18 10:19:49;;;;;;;0.97;0.83;;;9.50;59.40;;;;;;4270808;27;20047;-59
2022/04/18 10:22:00;;;;;;;0.77;0.40;;;9.80;59.00;;;;;;4274750;27;20100;-58
2022/04/18 10:24:49;;;;;;;1.00;0.73;;;10.20;59.00;;;;;;4247828;27;20039;-59
2022/04/18 10:27:24;;;;;;;2.07;0.80;;;10.20;57.00;;;;;;4220426;28;20096;-59
2022/04/18 10:29:48;;;;;;;1.10;0.80;;;9.80;57.30;;;;;;4209801;28;20480;-59
2022/04/18 10:31:52;;;;;;;1.33;0.80;;;9.50;58.60;;;;;;4222883;27;20570;-58
2022/04/18 10:33:56;;;;;;;1.97;1.10;;;9.60;59.40;;;;;;4256168;27;20479;-58
2022/04/18 10:36:02;;;;;;;5.00;1.20;;;9.70;59.50;;;;;;4274730;27;20509;-55
2022/04/18 10:38:05;;;;;;;1.10;0.80;;;9.90;59.80;;;;;;4274606;27;20419;-59
2022/04/18 10:40:07;;;;;;;1.20;0.60;;;10.00;58.90;;;;;;4258071;27;20060;-59
2022/04/18 10:42:35;;;;;;;0.87;0.70;;;9.90;58.20;;;;;;4259085;27;20087;-61
2022/04/18 10:44:38;;;;;;;3.53;1.27;;;9.80;57.30;;;;;;4262934;27;20046;-65
2022/04/18 10:47:03;;;;;;;2.33;0.77;;;9.60;57.90;;;;;;4276066;27;20066;-59
2022/04/18 10:49:35;;;;;;;1.57;0.77;;;9.50;57.50;;;;;;4265084;27;20043;-65
2022/04/18 10:51:39;;;;;;;2.40;0.70;;;9.40;58.20;;;;;;4244523;27;20042;-58
2022/04/18 10:53:40;;;;;;;0.80;0.80;;;9.50;58.60;;;;;;4264023;27;20431;-58